sensor_id;sensor_type;location;lat;lon;timestamp;pressure;altitude;pressure_sealevel;temperature;humidity
64933;BME280;51446;53.850;10.662;2023-02-12T00:02:21;103376.84;;;6.64;100.00
64933;BME280;51446;53.850;10.662;2023-02-12T00:04:47;103385.47;;;6.51;100.00
64933;BME280;51446;53.850;10.662;2023-02-12T00:07:12;103392.84;;;6.56;100.00
64933;BME280;51446;53.850;10.662;2023-02-12T00:09:37;103399.53;;;6.53;100.00
64933;BME280;51446;53.850;10.662;2023-02-12T00:12:02;103395.94;;;6.63;100.00
64933;BME280;51446;53.850;10.662;2023-02-12T00:14:28;103401.34;;;6.54;100.00
64933;BME280;51446;53.850;10.662;2023-02-12T00:16:53;103402.47;;;6.46;100.00
64933;BME280;51446;53.850;10.662;2023-02-12T00:19:18;103398.16;;;6.46;100.00
64933;BME280;51446;53.850;10.662;2023-02-12T00:21:43;103411.53;;;6.51;100.00
64933;BME280;51446;53.850;10.662;2023-02-12T00:24:09;103407.47;;;6.54;100.00
64933;BME280;51446;53.850;10.662;2023-02-12T00:26:34;103414.97;;;6.50;100.00
64933;BME280;51446;53.850;10.662;2023-02-12T00:29:00;103419.91;;;6.47;100.00
64933;BME280;51446;53.850;10.662;2023-02-12T00:31:28;103416.91;;;6.64;100.00
64933;BME280;51446;53.850;10.662;2023-02-12T00:33:53;103418.56;;;6.52;100.00
64933;BME280;51446;53.850;10.662;2023-02-12T00:36:22;103414.03;;;6.37;100.00
64933;BME280;51446;53.850;10.662;2023-02-12T00:38:50;103421.16;;;6.40;100.00
64933;BME280;51446;53.850;10.662;2023-02-12T00:41:15;103419.91;;;6.47;100.00
64933;BME280;51446;53.850;10.662;2023-02-12T00:43:41;103420.69;;;6.34;100.00
64933;BME280;51446;53.850;10.662;2023-02-12T00:46:06;103423.28;;;6.34;100.00
64933;BME280;51446;53.850;10.662;2023-02-12T00:48:33;103426.16;;;6.49;100.00
64933;BME280;51446;53.850;10.662;2023-02-12T00:50:58;103421.16;;;6.40;100.00
64933;BME280;51446;53.850;10.662;2023-02-12T00:53:24;103432.28;;;6.37;100.00
64933;BME280;51446;53.850;10.662;2023-02-12T00:55:49;103433.06;;;6.36;100.00
64933;BME280;51446;53.850;10.662;2023-02-12T00:58:15;103432.94;;;6.35;100.00
64933;BME280;51446;53.850;10.662;2023-02-12T01:00:41;103441.81;;;6.49;100.00
64933;BME280;51446;53.850;10.662;2023-02-12T01:03:06;103431.00;;;6.32;100.00
64933;BME280;51446;53.850;10.662;2023-02-12T01:05:32;103443.81;;;6.41;100.00
64933;BME280;51446;53.850;10.662;2023-02-12T01:07:57;103434.63;;;6.22;100.00
64933;BME280;51446;53.850;10.662;2023-02-12T01:10:23;103434.75;;;6.24;100.00
64933;BME280;51446;53.850;10.662;2023-02-12T01:12:49;103435.44;;;6.33;100.00
64933;BME280;51446;53.850;10.662;2023-02-12T01:15:15;103441.53;;;6.34;100.00
64933;BME280;51446;53.850;10.662;2023-02-12T01:17:41;103433.59;;;6.20;100.00
64933;BME280;51446;53.850;10.662;2023-02-12T01:20:08;103442.06;;;6.18;100.00
64933;BME280;51446;53.850;10.662;2023-02-12T01:22:34;103444.66;;;6.18;100.00
64933;BME280;51446;53.850;10.662;2023-02-12T01:25:00;103447.84;;;6.14;100.00
64933;BME280;51446;53.850;10.662;2023-02-12T01:27:25;103452.59;;;6.19;100.00
64933;BME280;51446;53.850;10.662;2023-02-12T01:29:51;103455.09;;;6.18;100.00
64933;BME280;51446;53.850;10.662;2023-02-12T01:32:16;103463.09;;;6.09;100.00
64933;BME280;51446;53.850;10.662;2023-02-12T01:34:41;103462.44;;;6.12;100.00
64933;BME280;51446;53.850;10.662;2023-02-12T01:37:07;103466.78;;;6.23;100.00
64933;BME280;51446;53.850;10.662;2023-02-12T01:39:33;103469.03;;;6.18;100.00
64933;BME280;51446;53.850;10.662;2023-02-12T01:41:59;103461.56;;;6.23;100.00
64933;BME280;51446;53.850;10.662;2023-02-12T01:44:28;103467.69;;;6.23;100.00
64933;BME280;51446;53.850;10.662;2023-02-12T01:46:56;103458.44;;;6.05;100.00
64933;BME280;51446;53.850;10.662;2023-02-12T01:49:34;103467.31;;;6.07;100.00
64933;BME280;51446;53.850;10.662;2023-02-12T01:52:08;103474.34;;;6.08;100.00
64933;BME280;51446;53.850;10.662;2023-02-12T01:54:37;103473.28;;;6.06;100.00
64933;BME280;51446;53.850;10.662;2023-02-12T01:57:05;103477.06;;;6.10;100.00
64933;BME280;51446;53.850;10.662;2023-02-12T01:59:31;103474.56;;;6.11;100.00
64933;BME280;51446;53.850;10.662;2023-02-12T02:01:57;103471.03;;;6.11;100.00
64933;BME280;51446;53.850;10.662;2023-02-12T02:04:26;103478.50;;;6.06;100.00
64933;BME280;51446;53.850;10.662;2023-02-12T02:06:56;103472.09;;;6.13;100.00
64933;BME280;51446;53.850;10.662;2023-02-12T02:09:23;103468.63;;;6.02;100.00
64933;BME280;51446;53.850;10.662;2023-02-12T02:11:48;103468.28;;;5.97;100.00
64933;BME280;51446;53.850;10.662;2023-02-12T02:14:32;103462.53;;;6.01;100.00
64933;BME280;51446;53.850;10.662;2023-02-12T02:17:06;103466.72;;;5.99;100.00
64933;BME280;51446;53.850;10.662;2023-02-12T02:22:36;103453.00;;;6.02;100.00
64933;BME280;51446;53.850;10.662;2023-02-12T02:28:13;103453.28;;;5.95;100.00
64933;BME280;51446;53.850;10.662;2023-02-12T02:30:51;103457.31;;;6.01;100.00
64933;BME280;51446;53.850;10.662;2023-02-12T02:41:59;103450.56;;;6.15;100.00
64933;BME280;51446;53.850;10.662;2023-02-12T02:44:35;103450.25;;;6.22;100.00
64933;BME280;51446;53.850;10.662;2023-02-12T02:47:04;103454.31;;;6.19;100.00
64933;BME280;51446;53.850;10.662;2023-02-12T02:49:43;103455.72;;;6.03;100.00
64933;BME280;51446;53.850;10.662;2023-02-12T02:52:15;103453.00;;;6.02;100.00
64933;BME280;51446;53.850;10.662;2023-02-12T02:54:45;103455.41;;;6.11;100.00
64933;BME280;51446;53.850;10.662;2023-02-12T02:57:27;103458.72;;;6.08;100.00
64933;BME280;51446;53.850;10.662;2023-02-12T02:59:59;103464.47;;;6.04;100.00
64933;BME280;51446;53.850;10.662;2023-02-12T03:02:31;103461.50;;;5.99;100.00
64933;BME280;51446;53.850;10.662;2023-02-12T03:05:02;103460.72;;;6.12;100.00
64933;BME280;51446;53.850;10.662;2023-02-12T03:07:37;103462.78;;;5.94;100.00
64933;BME280;51446;53.850;10.662;2023-02-12T03:10:11;103467.50;;;5.98;100.00
64933;BME280;51446;53.850;10.662;2023-02-12T03:12:44;103477.25;;;5.90;100.00
64933;BME280;51446;53.850;10.662;2023-02-12T03:15:23;103472.09;;;6.13;100.00
64933;BME280;51446;53.850;10.662;2023-02-12T03:17:50;103476.38;;;6.12;100.00
64933;BME280;51446;53.850;10.662;2023-02-12T03:20:28;103477.59;;;6.05;100.00
64933;BME280;51446;53.850;10.662;2023-02-12T03:23:03;103475.94;;;5.96;100.00
64933;BME280;51446;53.850;10.662;2023-02-12T03:25:37;103489.06;;;6.19;100.00
64933;BME280;51446;53.850;10.662;2023-02-12T03:28:30;103486.09;;;6.03;100.00
64933;BME280;51446;53.850;10.662;2023-02-12T03:34:03;103499.56;;;5.87;100.00
64933;BME280;51446;53.850;10.662;2023-02-12T03:36:45;103502.66;;;5.93;100.00
64933;BME280;51446;53.850;10.662;2023-02-12T03:39:37;103510.06;;;5.99;100.00
64933;BME280;51446;53.850;10.662;2023-02-12T03:42:17;103498.75;;;5.98;100.00
64933;BME280;51446;53.850;10.662;2023-02-12T03:47:59;103502.94;;;5.86;100.00
64933;BME280;51446;53.850;10.662;2023-02-12T03:50:52;103516.44;;;6.02;100.00
64933;BME280;51446;53.850;10.662;2023-02-12T03:53:16;103509.88;;;6.07;100.00
64933;BME280;51446;53.850;10.662;2023-02-12T03:55:44;103518.66;;;5.98;100.00
64933;BME280;51446;53.850;10.662;2023-02-12T03:58:14;103509.69;;;5.94;100.00
64933;BME280;51446;53.850;10.662;2023-02-12T04:00:43;103516.72;;;5.95;100.00
64933;BME280;51446;53.850;10.662;2023-02-12T04:03:08;103517.25;;;5.91;100.00
64933;BME280;51446;53.850;10.662;2023-02-12T04:05:33;103520.72;;;6.02;100.00
64933;BME280;51446;53.850;10.662;2023-02-12T04:07:59;103518.38;;;5.95;100.00
64933;BME280;51446;53.850;10.662;2023-02-12T04:10:31;103507.41;;;6.09;100.00
64933;BME280;51446;53.850;10.662;2023-02-12T04:13:20;103514.44;;;6.10;100.00
64933;BME280;51446;53.850;10.662;2023-02-12T04:18:39;103514.97;;;6.06;100.00
64933;BME280;51446;53.850;10.662;2023-02-12T04:21:35;103518.81;;;5.99;100.00
64933;BME280;51446;53.850;10.662;2023-02-12T04:35:03;103537.31;;;5.92;100.00
64933;BME280;51446;53.850;10.662;2023-02-12T04:37:39;103539.75;;;5.90;100.00
64933;BME280;51446;53.850;10.662;2023-02-12T04:40:09;103538.09;;;5.91;100.00
64933;BME280;51446;53.850;10.662;2023-02-12T04:42:43;103535.38;;;5.89;100.00
64933;BME280;51446;53.850;10.662;2023-02-12T04:45:15;103541.66;;;5.81;100.00
64933;BME280;51446;53.850;10.662;2023-02-12T04:47:41;103554.56;;;5.80;100.00
64933;BME280;51446;53.850;10.662;2023-02-12T04:50:07;103548.75;;;5.72;100.00
64933;BME280;51446;53.850;10.662;2023-02-12T04:52:32;103555.84;;;5.85;100.00
64933;BME280;51446;53.850;10.662;2023-02-12T04:54:57;103555.28;;;5.89;100.00
64933;BME280;51446;53.850;10.662;2023-02-12T04:57:22;103547.69;;;5.70;100.00
64933;BME280;51446;53.850;10.662;2023-02-12T04:59:48;103548.31;;;5.78;100.00
64933;BME280;51446;53.850;10.662;2023-02-12T05:02:13;103552.72;;;5.79;100.00
64933;BME280;51446;53.850;10.662;2023-02-12T05:04:38;103559.41;;;5.75;100.00
64933;BME280;51446;53.850;10.662;2023-02-12T05:07:03;103555.88;;;5.74;100.00
64933;BME280;51446;53.850;10.662;2023-02-12T05:09:29;103560.00;;;5.83;100.00
64933;BME280;51446;53.850;10.662;2023-02-12T05:11:54;103556.91;;;5.77;100.00
64933;BME280;51446;53.850;10.662;2023-02-12T05:14:19;103563.03;;;5.77;100.00
64933;BME280;51446;53.850;10.662;2023-02-12T05:16:44;103561.72;;;5.82;100.00
64933;BME280;51446;53.850;10.662;2023-02-12T05:19:10;103559.88;;;5.81;100.00
64933;BME280;51446;53.850;10.662;2023-02-12T05:21:36;103562.72;;;5.84;100.00
64933;BME280;51446;53.850;10.662;2023-02-12T05:24:02;103561.47;;;5.79;100.00
64933;BME280;51446;53.850;10.662;2023-02-12T05:26:28;103564.03;;;5.89;100.00
64933;BME280;51446;53.850;10.662;2023-02-12T05:28:53;103563.22;;;5.90;100.00
64933;BME280;51446;53.850;10.662;2023-02-12T05:31:19;103557.41;;;5.83;100.00
64933;BME280;51446;53.850;10.662;2023-02-12T05:33:46;103557.16;;;5.80;100.00
64933;BME280;51446;53.850;10.662;2023-02-12T05:36:14;103568.53;;;6.02;100.00
64933;BME280;51446;53.850;10.662;2023-02-12T05:38:40;103564.31;;;5.82;100.00
64933;BME280;51446;53.850;10.662;2023-02-12T05:41:11;103558.44;;;5.85;100.00
64933;BME280;51446;53.850;10.662;2023-02-12T05:43:37;103570.78;;;5.87;100.00
64933;BME280;51446;53.850;10.662;2023-02-12T05:46:04;103568.75;;;5.73;100.00
64933;BME280;51446;53.850;10.662;2023-02-12T05:48:32;103566.91;;;5.82;100.00
64933;BME280;51446;53.850;10.662;2023-02-12T05:51:05;103572.25;;;5.84;100.00
64933;BME280;51446;53.850;10.662;2023-02-12T05:53:31;103573.50;;;5.89;100.00
64933;BME280;51446;53.850;10.662;2023-02-12T05:56:30;103577.81;;;5.88;100.00
64933;BME280;51446;53.850;10.662;2023-02-12T05:59:02;103581.91;;;5.74;100.00
64933;BME280;51446;53.850;10.662;2023-02-12T06:01:35;103576.03;;;5.77;100.00
64933;BME280;51446;53.850;10.662;2023-02-12T06:04:02;103569.63;;;5.84;100.00
64933;BME280;51446;53.850;10.662;2023-02-12T06:06:29;103585.22;;;5.94;100.00
64933;BME280;51446;53.850;10.662;2023-02-12T06:08:55;103589.00;;;5.98;100.00
64933;BME280;51446;53.850;10.662;2023-02-12T06:11:21;103585.03;;;5.81;100.00
64933;BME280;51446;53.850;10.662;2023-02-12T06:13:46;103579.75;;;5.91;100.00
64933;BME280;51446;53.850;10.662;2023-02-12T06:16:17;103584.06;;;6.01;100.00
64933;BME280;51446;53.850;10.662;2023-02-12T06:18:43;103584.56;;;5.97;100.00
64933;BME280;51446;53.850;10.662;2023-02-12T06:21:08;103582.28;;;5.79;100.00
64933;BME280;51446;53.850;10.662;2023-02-12T06:23:33;103581.25;;;5.77;100.00
64933;BME280;51446;53.850;10.662;2023-02-12T06:25:58;103577.09;;;5.79;100.00
64933;BME280;51446;53.850;10.662;2023-02-12T06:28:24;103583.50;;;5.95;100.00
64933;BME280;51446;53.850;10.662;2023-02-12T06:30:49;103578.06;;;5.91;100.00
64933;BME280;51446;53.850;10.662;2023-02-12T06:33:14;103577.88;;;5.78;100.00
64933;BME280;51446;53.850;10.662;2023-02-12T06:35:40;103580.72;;;5.81;100.00
64933;BME280;51446;53.850;10.662;2023-02-12T06:38:05;103578.34;;;5.84;100.00
64933;BME280;51446;53.850;10.662;2023-02-12T06:40:30;103580.41;;;5.88;100.00
64933;BME280;51446;53.850;10.662;2023-02-12T06:42:56;103587.69;;;5.93;100.00
64933;BME280;51446;53.850;10.662;2023-02-12T06:45:22;103596.53;;;5.95;100.00
64933;BME280;51446;53.850;10.662;2023-02-12T06:47:47;103607.00;;;5.84;100.00
64933;BME280;51446;53.850;10.662;2023-02-12T06:50:12;103607.19;;;6.08;100.00
64933;BME280;51446;53.850;10.662;2023-02-12T06:52:37;103606.50;;;6.11;100.00
64933;BME280;51446;53.850;10.662;2023-02-12T06:55:03;103604.97;;;6.13;100.00
64933;BME280;51446;53.850;10.662;2023-02-12T06:57:28;103610.78;;;6.20;100.00
64933;BME280;51446;53.850;10.662;2023-02-12T06:59:54;103613.56;;;6.12;100.00
64933;BME280;51446;53.850;10.662;2023-02-12T07:02:19;103610.53;;;6.17;100.00
64933;BME280;51446;53.850;10.662;2023-02-12T07:04:45;103616.41;;;6.15;100.00
64933;BME280;51446;53.850;10.662;2023-02-12T07:07:10;103613.00;;;6.16;100.00
64933;BME280;51446;53.850;10.662;2023-02-12T07:09:35;103622.13;;;6.21;100.00
64933;BME280;51446;53.850;10.662;2023-02-12T07:12:00;103621.59;;;6.15;100.00
64933;BME280;51446;53.850;10.662;2023-02-12T07:14:26;103624.16;;;6.25;100.00
64933;BME280;51446;53.850;10.662;2023-02-12T07:16:53;103631.50;;;6.19;100.00
64933;BME280;51446;53.850;10.662;2023-02-12T07:19:18;103630.72;;;6.20;100.00
64933;BME280;51446;53.850;10.662;2023-02-12T07:21:43;103623.19;;;6.13;100.00
64933;BME280;51446;53.850;10.662;2023-02-12T07:24:10;103635.16;;;6.21;100.00
64933;BME280;51446;53.850;10.662;2023-02-12T07:26:39;103633.63;;;6.35;100.00
64933;BME280;51446;53.850;10.662;2023-02-12T07:29:04;103642.50;;;6.27;100.00
64933;BME280;51446;53.850;10.662;2023-02-12T07:31:30;103641.91;;;6.19;100.00
64933;BME280;51446;53.850;10.662;2023-02-12T07:33:56;103639.06;;;6.16;100.00
64933;BME280;51446;53.850;10.662;2023-02-12T07:36:23;103638.88;;;6.24;100.00
64933;BME280;51446;53.850;10.662;2023-02-12T07:38:48;103642.78;;;6.30;100.00
64933;BME280;51446;53.850;10.662;2023-02-12T07:41:22;103636.00;;;6.32;100.00
64933;BME280;51446;53.850;10.662;2023-02-12T07:43:52;103645.25;;;6.50;100.00
64933;BME280;51446;53.850;10.662;2023-02-12T07:46:22;103643.44;;;6.27;100.00
64933;BME280;51446;53.850;10.662;2023-02-12T07:48:51;103649.03;;;6.32;100.00
64933;BME280;51446;53.850;10.662;2023-02-12T07:51:17;103661.63;;;6.37;100.00
64933;BME280;51446;53.850;10.662;2023-02-12T07:53:43;103658.38;;;6.40;100.00
64933;BME280;51446;53.850;10.662;2023-02-12T07:56:12;103658.31;;;6.50;100.00
64933;BME280;51446;53.850;10.662;2023-02-12T07:58:39;103658.00;;;6.57;100.00
64933;BME280;51446;53.850;10.662;2023-02-12T08:01:22;103661.44;;;6.68;100.00
64933;BME280;51446;53.850;10.662;2023-02-12T08:03:50;103660.59;;;6.57;100.00
64933;BME280;51446;53.850;10.662;2023-02-12T08:06:21;103666.38;;;6.53;100.00
64933;BME280;51446;53.850;10.662;2023-02-12T08:08:49;103671.34;;;6.50;100.00
64933;BME280;51446;53.850;10.662;2023-02-12T08:11:15;103669.09;;;6.55;100.00
64933;BME280;51446;53.850;10.662;2023-02-12T08:13:42;103672.91;;;6.70;100.00
64933;BME280;51446;53.850;10.662;2023-02-12T08:16:10;103670.09;;;6.79;100.00
64933;BME280;51446;53.850;10.662;2023-02-12T08:18:36;103671.56;;;6.75;100.00
64933;BME280;51446;53.850;10.662;2023-02-12T08:21:07;103673.09;;;6.95;100.00
64933;BME280;51446;53.850;10.662;2023-02-12T08:23:32;103680.22;;;6.86;100.00
64933;BME280;51446;53.850;10.662;2023-02-12T08:26:18;103672.06;;;6.82;100.00
64933;BME280;51446;53.850;10.662;2023-02-12T08:28:46;103678.00;;;7.03;100.00
64933;BME280;51446;53.850;10.662;2023-02-12T08:31:15;103675.78;;;6.85;100.00
64933;BME280;51446;53.850;10.662;2023-02-12T08:33:41;103674.31;;;6.77;100.00
64933;BME280;51446;53.850;10.662;2023-02-12T08:36:09;103675.91;;;6.87;100.00
64933;BME280;51446;53.850;10.662;2023-02-12T08:38:36;103677.75;;;6.88;100.00
64933;BME280;51446;53.850;10.662;2023-02-12T08:41:13;103679.59;;;7.01;100.00
64933;BME280;51446;53.850;10.662;2023-02-12T08:43:39;103687.22;;;7.09;100.00
64933;BME280;51446;53.850;10.662;2023-02-12T08:46:11;103664.19;;;7.16;100.00
64933;BME280;51446;53.850;10.662;2023-02-12T08:48:37;103677.75;;;7.34;100.00
64933;BME280;51446;53.850;10.662;2023-02-12T08:51:07;103676.81;;;7.21;100.00
64933;BME280;51446;53.850;10.662;2023-02-12T08:53:33;103672.41;;;7.20;100.00
64933;BME280;51446;53.850;10.662;2023-02-12T08:55:59;103673.44;;;7.34;100.00
64933;BME280;51446;53.850;10.662;2023-02-12T08:58:24;103667.81;;;7.63;100.00
64933;BME280;51446;53.850;10.662;2023-02-12T09:00:49;103671.53;;;7.79;100.00
64933;BME280;51446;53.850;10.662;2023-02-12T09:03:14;103668.50;;;7.61;100.00
64933;BME280;51446;53.850;10.662;2023-02-12T09:05:40;103665.75;;;7.59;100.00
64933;BME280;51446;53.850;10.662;2023-02-12T09:08:06;103672.94;;;7.74;100.00
64933;BME280;51446;53.850;10.662;2023-02-12T09:10:32;103671.78;;;7.70;100.00
64933;BME280;51446;53.850;10.662;2023-02-12T09:12:58;103683.38;;;7.86;100.00
64933;BME280;51446;53.850;10.662;2023-02-12T09:15:23;103688.94;;;7.78;100.00
64933;BME280;51446;53.850;10.662;2023-02-12T09:17:48;103679.38;;;7.55;100.00
64933;BME280;51446;53.850;10.662;2023-02-12T09:20:13;103686.78;;;7.61;100.00
64933;BME280;51446;53.850;10.662;2023-02-12T09:22:40;103680.66;;;7.72;100.00
64933;BME280;51446;53.850;10.662;2023-02-12T09:25:05;103683.72;;;7.78;100.00
64933;BME280;51446;53.850;10.662;2023-02-12T09:27:32;103689.16;;;7.70;100.00
64933;BME280;51446;53.850;10.662;2023-02-12T09:29:57;103690.97;;;7.94;100.00
64933;BME280;51446;53.850;10.662;2023-02-12T09:32:22;103694.72;;;7.86;100.00
64933;BME280;51446;53.850;10.662;2023-02-12T09:34:48;103703.81;;;7.91;100.00
64933;BME280;51446;53.850;10.662;2023-02-12T09:37:13;103700.16;;;7.66;100.00
64933;BME280;51446;53.850;10.662;2023-02-12T09:39:38;103707.22;;;7.78;100.00
64933;BME280;51446;53.850;10.662;2023-02-12T09:42:14;103699.03;;;7.74;100.00
64933;BME280;51446;53.850;10.662;2023-02-12T09:44:57;103709.25;;;7.94;100.00
64933;BME280;51446;53.850;10.662;2023-02-12T09:47:35;103706.41;;;8.03;100.00
64933;BME280;51446;53.850;10.662;2023-02-12T09:52:56;103708.13;;;7.79;100.00
64933;BME280;51446;53.850;10.662;2023-02-12T09:55:26;103708.38;;;7.94;100.00
64933;BME280;51446;53.850;10.662;2023-02-12T09:57:53;103711.09;;;7.95;100.00
64933;BME280;51446;53.850;10.662;2023-02-12T10:00:25;103704.81;;;7.93;100.00
64933;BME280;51446;53.850;10.662;2023-02-12T10:02:56;103700.38;;;8.16;100.00
64933;BME280;51446;53.850;10.662;2023-02-12T10:05:26;103695.16;;;8.16;100.00
64933;BME280;51446;53.850;10.662;2023-02-12T10:14:24;103713.66;;;8.31;100.00
64933;BME280;51446;53.850;10.662;2023-02-12T10:17:12;103699.00;;;8.33;100.00
64933;BME280;51446;53.850;10.662;2023-02-12T10:25:58;103700.47;;;8.41;100.00
64933;BME280;51446;53.850;10.662;2023-02-12T10:28:33;103707.03;;;8.60;100.00
64933;BME280;51446;53.850;10.662;2023-02-12T10:31:06;103708.66;;;8.34;100.00
64933;BME280;51446;53.850;10.662;2023-02-12T10:33:45;103709.56;;;8.46;100.00
64933;BME280;51446;53.850;10.662;2023-02-12T10:38:50;103696.34;;;8.57;100.00
64933;BME280;51446;53.850;10.662;2023-02-12T10:41:19;103708.38;;;8.66;100.00
64933;BME280;51446;53.850;10.662;2023-02-12T10:43:46;103710.38;;;8.82;100.00
64933;BME280;51446;53.850;10.662;2023-02-12T10:46:16;103705.97;;;8.70;100.00
64933;BME280;51446;53.850;10.662;2023-02-12T10:48:44;103697.88;;;8.78;100.00
64933;BME280;51446;53.850;10.662;2023-02-12T10:51:27;103701.41;;;9.04;100.00
64933;BME280;51446;53.850;10.662;2023-02-12T10:53:54;103699.63;;;8.91;100.00
64933;BME280;51446;53.850;10.662;2023-02-12T10:56:21;103705.34;;;9.11;100.00
64933;BME280;51446;53.850;10.662;2023-02-12T11:01:18;103696.25;;;9.06;100.00
64933;BME280;51446;53.850;10.662;2023-02-12T11:03:44;103707.00;;;8.97;100.00
64933;BME280;51446;53.850;10.662;2023-02-12T11:06:18;103699.16;;;8.97;100.00
64933;BME280;51446;53.850;10.662;2023-02-12T11:08:44;103701.50;;;9.06;100.00
64933;BME280;51446;53.850;10.662;2023-02-12T11:11:28;103691.50;;;9.00;100.00
64933;BME280;51446;53.850;10.662;2023-02-12T11:14:08;103691.72;;;9.03;100.00
64933;BME280;51446;53.850;10.662;2023-02-12T11:16:50;103686.16;;;8.98;100.00
64933;BME280;51446;53.850;10.662;2023-02-12T11:19:28;103687.59;;;8.93;100.00
64933;BME280;51446;53.850;10.662;2023-02-12T11:22:06;103689.22;;;9.43;100.00
64933;BME280;51446;53.850;10.662;2023-02-12T11:24:35;103685.09;;;9.47;100.00
64933;BME280;51446;53.850;10.662;2023-02-12T11:27:29;103684.06;;;9.31;100.00
64933;BME280;51446;53.850;10.662;2023-02-12T11:30:23;103678.16;;;9.09;100.00
64933;BME280;51446;53.850;10.662;2023-02-12T11:32:49;103677.97;;;9.19;100.00
64933;BME280;51446;53.850;10.662;2023-02-12T11:35:20;103678.72;;;9.05;100.00
64933;BME280;51446;53.850;10.662;2023-02-12T11:37:54;103684.47;;;8.99;100.00
64933;BME280;51446;53.850;10.662;2023-02-12T11:40:23;103680.00;;;8.84;100.00
64933;BME280;51446;53.850;10.662;2023-02-12T11:42:53;103672.53;;;9.16;100.00
64933;BME280;51446;53.850;10.662;2023-02-12T11:45:21;103671.81;;;9.05;100.00
64933;BME280;51446;53.850;10.662;2023-02-12T11:47:50;103681.50;;;9.06;100.00
64933;BME280;51446;53.850;10.662;2023-02-12T11:50:27;103682.09;;;8.90;100.00
64933;BME280;51446;53.850;10.662;2023-02-12T11:52:57;103673.50;;;9.43;100.00
64933;BME280;51446;53.850;10.662;2023-02-12T11:55:27;103671.00;;;9.58;100.00
64933;BME280;51446;53.850;10.662;2023-02-12T11:58:21;103670.59;;;9.92;100.00
64933;BME280;51446;53.850;10.662;2023-02-12T12:03:57;103664.84;;;9.44;100.00
64933;BME280;51446;53.850;10.662;2023-02-12T12:06:43;103669.94;;;8.91;100.00
64933;BME280;51446;53.850;10.662;2023-02-12T12:09:27;103676.03;;;8.78;100.00
64933;BME280;51446;53.850;10.662;2023-02-12T12:12:09;103675.81;;;9.00;100.00
64933;BME280;51446;53.850;10.662;2023-02-12T12:14:51;103669.78;;;9.01;100.00
64933;BME280;51446;53.850;10.662;2023-02-12T12:17:45;103666.94;;;8.98;100.00
64933;BME280;51446;53.850;10.662;2023-02-12T12:21:07;103670.56;;;9.00;100.00
64933;BME280;51446;53.850;10.662;2023-02-12T12:23:36;103667.75;;;8.97;100.00
64933;BME280;51446;53.850;10.662;2023-02-12T12:26:12;103675.00;;;9.01;100.00
64933;BME280;51446;53.850;10.662;2023-02-12T12:28:50;103666.53;;;8.92;100.00
64933;BME280;51446;53.850;10.662;2023-02-12T12:34:15;103672.63;;;8.79;100.00
64933;BME280;51446;53.850;10.662;2023-02-12T12:39:59;103669.81;;;8.64;100.00
64933;BME280;51446;53.850;10.662;2023-02-12T12:42:40;103668.81;;;8.62;100.00
64933;BME280;51446;53.850;10.662;2023-02-12T12:45:37;103675.00;;;8.76;100.00
64933;BME280;51446;53.850;10.662;2023-02-12T12:48:10;103662.06;;;8.77;100.00
64933;BME280;51446;53.850;10.662;2023-02-12T12:51:05;103663.09;;;8.93;100.00
64933;BME280;51446;53.850;10.662;2023-02-12T12:56:44;103656.91;;;9.17;100.00
64933;BME280;51446;53.850;10.662;2023-02-12T13:08:00;103634.22;;;9.05;100.00
64933;BME280;51446;53.850;10.662;2023-02-12T13:10:49;103633.03;;;8.99;100.00
64933;BME280;51446;53.850;10.662;2023-02-12T13:13:27;103633.91;;;8.87;100.00
64933;BME280;51446;53.850;10.662;2023-02-12T13:16:00;103626.25;;;8.90;100.00
64933;BME280;51446;53.850;10.662;2023-02-12T13:21:33;103632.72;;;8.95;100.00
64933;BME280;51446;53.850;10.662;2023-02-12T13:24:21;103638.13;;;8.59;100.00
64933;BME280;51446;53.850;10.662;2023-02-12T13:27:01;103636.28;;;8.58;100.00
64933;BME280;51446;53.850;10.662;2023-02-12T13:29:35;103635.44;;;8.71;100.00
64933;BME280;51446;53.850;10.662;2023-02-12T13:34:49;103627.75;;;8.61;100.00
64933;BME280;51446;53.850;10.662;2023-02-12T13:37:21;103630.22;;;8.71;100.00
64933;BME280;51446;53.850;10.662;2023-02-12T13:39:49;103623.81;;;8.79;100.00
64933;BME280;51446;53.850;10.662;2023-02-12T13:42:39;103627.66;;;8.84;100.00
64933;BME280;51446;53.850;10.662;2023-02-12T13:47:44;103633.31;;;8.65;100.00
64933;BME280;51446;53.850;10.662;2023-02-12T13:50:31;103628.91;;;8.53;100.00
64933;BME280;51446;53.850;10.662;2023-02-12T13:53:03;103629.25;;;8.82;100.00
64933;BME280;51446;53.850;10.662;2023-02-12T13:55:33;103629.34;;;8.84;100.00
64933;BME280;51446;53.850;10.662;2023-02-12T14:03:29;103624.56;;;8.65;100.00
64933;BME280;51446;53.850;10.662;2023-02-12T14:06:15;103628.78;;;8.63;100.00
64933;BME280;51446;53.850;10.662;2023-02-12T14:08:44;103622.72;;;8.64;100.00
64933;BME280;51446;53.850;10.662;2023-02-12T14:11:17;103623.38;;;8.48;100.00
64933;BME280;51446;53.850;10.662;2023-02-12T14:13:54;103614.84;;;8.39;100.00
64933;BME280;51446;53.850;10.662;2023-02-12T14:22:01;103616.78;;;8.53;100.00
64933;BME280;51446;53.850;10.662;2023-02-12T14:27:05;103616.78;;;8.53;100.00
64933;BME280;51446;53.850;10.662;2023-02-12T14:29:36;103613.34;;;8.54;100.00
64933;BME280;51446;53.850;10.662;2023-02-12T14:32:01;103616.78;;;8.53;100.00
64933;BME280;51446;53.850;10.662;2023-02-12T14:37:16;103618.06;;;8.34;100.00
64933;BME280;51446;53.850;10.662;2023-02-12T14:39:42;103614.03;;;8.40;100.00